Time;durP1;ratioP1;P1;durP2;ratioP2;P2;SDS_P1;SDS_P2;PMS_P1;PMS_P2;Temp;Humidity;BMP_temperature;BMP_pressure;BME280_temperature;BME280_humidity;BME280_pressure;Samples;Min_cycle;Max_cycle;Signal;HPM_P1;HPM_P2
2023/09/02 00:01:32;;;;;;;;;;;23.00;47.60;;;;;;5032915;28;19913;-71
2023/09/02 00:04:01;;;;;;;;;;;23.10;46.90;;;;;;5031491;28;19917;-72
2023/09/02 00:06:28;;;;;;;;;;;23.20;47.80;;;;;;5034217;28;20008;-71
2023/09/02 00:08:54;;;;;;;;;;;23.60;46.50;;;;;;5033639;28;19972;-72
2023/09/02 00:11:21;;;;;;;;;;;23.40;46.60;;;;;;5032670;28;20406;-71
2023/09/02 00:13:47;;;;;;;;;;;23.50;47.40;;;;;;5030529;28;19982;-72
2023/09/02 00:16:16;;;;;;;;;;;23.70;47.50;;;;;;5034498;28;20317;-72
2023/09/02 00:18:45;;;;;;;;;;;24.10;47.00;;;;;;5033448;28;19924;-71
2023/09/02 00:21:11;;;;;;;;;;;24.90;45.30;;;;;;5048345;28;19909;-72
2023/09/02 00:23:43;;;;;;;;;;;24.50;46.10;;;;;;5031896;28;19912;-72
2023/09/02 00:26:10;;;;;;;;;;;23.80;46.40;;;;;;5032539;28;20282;-72
2023/09/02 00:28:37;;;;;;;;;;;23.80;47.60;;;;;;5032802;28;20396;-73
2023/09/02 00:31:03;;;;;;;;;;;24.00;46.90;;;;;;5030648;28;19964;-73
2023/09/02 00:33:30;;;;;;;;;;;24.40;45.70;;;;;;5035209;28;19963;-72
2023/09/02 00:35:57;;;;;;;;;;;24.60;48.90;;;;;;5032406;28;19924;-72
2023/09/02 00:38:23;;;;;;;;;;;24.90;44.90;;;;;;5031479;28;19917;-72
2023/09/02 00:40:55;;;;;;;;;;;25.10;43.50;;;;;;5025303;28;19933;-71
2023/09/02 00:43:21;;;;;;;;;;;24.80;44.90;;;;;;5030131;28;19921;-72
2023/09/02 00:45:48;;;;;;;;;;;25.00;44.60;;;;;;5032564;28;20346;-72
2023/09/02 00:48:15;;;;;;;;;;;25.20;43.90;;;;;;5031497;28;20450;-71
2023/09/02 00:50:41;;;;;;;;;;;24.80;45.70;;;;;;5032599;28;19962;-70
2023/09/02 00:53:08;;;;;;;;;;;25.10;44.00;;;;;;5035910;28;19959;-73
2023/09/02 00:55:35;;;;;;;;;;;24.70;44.60;;;;;;5032316;28;19921;-71
2023/09/02 00:58:02;;;;;;;;;;;24.70;45.40;;;;;;5031618;28;19928;-72
2023/09/02 01:00:29;;;;;;;;;;;24.90;45.10;;;;;;5032168;28;19909;-72
2023/09/02 01:02:55;;;;;;;;;;;25.10;44.50;;;;;;5031920;28;19913;-71
2023/09/02 01:05:23;;;;;;;;;;;25.50;45.10;;;;;;5024114;28;20325;-72
2023/09/02 01:07:51;;;;;;;;;;;25.30;44.40;;;;;;5028965;28;20433;-71
2023/09/02 01:10:18;;;;;;;;;;;25.30;44.00;;;;;;5033185;28;19917;-71
2023/09/02 01:12:45;;;;;;;;;;;25.50;44.80;;;;;;5029408;28;19924;-71
2023/09/02 01:15:11;;;;;;;;;;;25.60;43.80;;;;;;5032573;28;19928;-71
2023/09/02 01:17:38;;;;;;;;;;;25.90;43.90;;;;;;5031079;28;19952;-71
2023/09/02 01:20:06;;;;;;;;;;;25.70;45.10;;;;;;5032463;28;19921;-71
2023/09/02 01:22:33;;;;;;;;;;;25.90;44.00;;;;;;5031607;28;19920;-71
2023/09/02 01:25:28;;;;;;;;;;;25.80;45.20;;;;;;5033388;28;19917;-72
2023/09/02 01:28:07;;;;;;;;;;;25.70;45.20;;;;;;5021735;28;19913;-71
2023/09/02 01:30:37;;;;;;;;;;;24.60;44.60;;;;;;5035447;28;20551;-71
2023/09/02 01:33:06;;;;;;;;;;;24.40;45.40;;;;;;5034492;28;20030;-72
2023/09/02 01:35:34;;;;;;;;;;;24.40;45.20;;;;;;5035106;28;19913;-72
2023/09/02 01:38:02;;;;;;;;;;;24.90;45.60;;;;;;5036390;28;19953;-72
2023/09/02 01:40:29;;;;;;;;;;;25.20;44.40;;;;;;5038171;28;20378;-73
2023/09/02 01:42:59;;;;;;;;;;;25.90;44.70;;;;;;5037389;28;19920;-72
2023/09/02 01:45:34;;;;;;;;;;;26.00;44.50;;;;;;5037761;28;19947;-71
2023/09/02 01:48:01;;;;;;;;;;;26.00;42.80;;;;;;5035390;28;19925;-72
2023/09/02 01:50:32;;;;;;;;;;;24.90;44.80;;;;;;5035058;28;19928;-72
2023/09/02 01:52:59;;;;;;;;;;;23.80;45.80;;;;;;5036787;28;19932;-71
2023/09/02 01:55:26;;;;;;;;;;;22.90;47.20;;;;;;5035390;28;19983;-72
2023/09/02 01:57:55;;;;;;;;;;;22.40;48.00;;;;;;5035977;28;19913;-71
2023/09/02 02:00:21;;;;;;;;;;;22.90;48.00;;;;;;5035966;28;19917;-72
2023/09/02 02:02:54;;;;;;;;;;;23.90;47.20;;;;;;5035472;28;19921;-72
2023/09/02 02:05:25;;;;;;;;;;;24.30;43.70;;;;;;5036520;28;19936;-72
2023/09/02 02:07:56;;;;;;;;;;;23.80;44.80;;;;;;5036370;28;19959;-72
2023/09/02 02:10:24;;;;;;;;;;;23.40;45.20;;;;;;5035749;28;19917;-72
2023/09/02 02:12:51;;;;;;;;;;;23.40;46.80;;;;;;5034703;28;19914;-72
2023/09/02 02:15:18;;;;;;;;;;;23.40;47.00;;;;;;5040488;28;19913;-72
2023/09/02 02:17:44;;;;;;;;;;;22.90;47.20;;;;;;5035635;28;20357;-70
2023/09/02 02:20:11;;;;;;;;;;;22.10;48.10;;;;;;5032905;28;20317;-72
2023/09/02 02:22:38;;;;;;;;;;;22.80;47.90;;;;;;5036527;28;19924;-72
2023/09/02 02:25:05;;;;;;;;;;;23.50;46.30;;;;;;5036102;28;19963;-72
2023/09/02 02:27:31;;;;;;;;;;;24.10;46.00;;;;;;5034160;28;19909;-72
2023/09/02 02:29:58;;;;;;;;;;;24.60;45.40;;;;;;5035633;28;20394;-72
2023/09/02 02:32:25;;;;;;;;;;;25.10;44.80;;;;;;5037487;28;20370;-72
2023/09/02 02:34:53;;;;;;;;;;;24.90;41.60;;;;;;5036565;28;19913;-72
2023/09/02 02:37:20;;;;;;;;;;;24.70;42.80;;;;;;5035659;28;19928;-73
2023/09/02 02:39:47;;;;;;;;;;;24.40;43.00;;;;;;5034850;28;20016;-72
2023/09/02 02:42:15;;;;;;;;;;;24.70;42.20;;;;;;5035466;28;19939;-72
2023/09/02 02:44:41;;;;;;;;;;;24.00;42.60;;;;;;5034165;28;20405;-72
2023/09/02 02:47:08;;;;;;;;;;;23.40;44.20;;;;;;5036931;28;20281;-72
2023/09/02 02:49:35;;;;;;;;;;;22.90;47.70;;;;;;5035993;28;19921;-72
2023/09/02 02:52:01;;;;;;;;;;;22.70;46.80;;;;;;5033870;28;19917;-72
2023/09/02 02:54:28;;;;;;;;;;;22.70;45.80;;;;;;5037952;28;19963;-71
2023/09/02 02:56:55;;;;;;;;;;;22.80;45.60;;;;;;5036504;28;19927;-71
2023/09/02 02:59:21;;;;;;;;;;;22.60;43.90;;;;;;5033271;28;19967;-71
2023/09/02 03:01:50;;;;;;;;;;;21.70;47.40;;;;;;5032589;28;19913;-72
2023/09/02 03:04:17;;;;;;;;;;;21.40;49.30;;;;;;5031788;28;20390;-71
2023/09/02 03:06:44;;;;;;;;;;;22.20;49.20;;;;;;5033665;28;19909;-72
2023/09/02 03:09:11;;;;;;;;;;;23.10;47.50;;;;;;5033439;28;19949;-71
2023/09/02 03:11:37;;;;;;;;;;;23.80;46.00;;;;;;5028509;28;19917;-72
2023/09/02 03:14:04;;;;;;;;;;;24.20;44.80;;;;;;5033000;28;19935;-72
2023/09/02 03:16:30;;;;;;;;;;;24.70;41.40;;;;;;5028152;28;19917;-72
2023/09/02 03:18:57;;;;;;;;;;;24.50;41.50;;;;;;5031017;28;19917;-71
2023/09/02 03:21:24;;;;;;;;;;;24.70;42.50;;;;;;5034260;28;20380;-73
2023/09/02 03:23:50;;;;;;;;;;;24.40;42.70;;;;;;5032201;28;19953;-71
2023/09/02 03:26:18;;;;;;;;;;;24.40;41.40;;;;;;5034834;28;19920;-72
2023/09/02 03:28:44;;;;;;;;;;;24.50;41.10;;;;;;5031809;28;19921;-72
2023/09/02 03:31:11;;;;;;;;;;;23.90;41.90;;;;;;5032783;28;19913;-72
2023/09/02 03:33:38;;;;;;;;;;;23.60;43.70;;;;;;5031974;28;19917;-73
2023/09/02 03:36:05;;;;;;;;;;;23.60;43.00;;;;;;5029856;28;19960;-73
2023/09/02 03:38:31;;;;;;;;;;;23.60;43.50;;;;;;5032809;28;19944;-73
2023/09/02 03:40:58;;;;;;;;;;;23.00;43.40;;;;;;5031693;28;19921;-73
2023/09/02 03:43:25;;;;;;;;;;;23.40;44.20;;;;;;5031186;28;19920;-73
2023/09/02 03:45:52;;;;;;;;;;;23.60;43.50;;;;;;4903680;28;3618793;-73
2023/09/02 03:48:19;;;;;;;;;;;23.80;44.10;;;;;;5033336;28;19994;-72
2023/09/02 03:51:05;;;;;;;;;;;24.00;44.80;;;;;;5029998;28;19917;-71
2023/09/02 03:53:32;;;;;;;;;;;24.30;42.40;;;;;;5033532;28;19909;-72
2023/09/02 03:55:59;;;;;;;;;;;24.40;44.50;;;;;;5048597;28;20390;-72
2023/09/02 03:58:26;;;;;;;;;;;24.40;43.50;;;;;;5034427;28;20008;-73
2023/09/02 04:00:53;;;;;;;;;;;23.50;43.80;;;;;;5033491;28;19913;-72
2023/09/02 04:03:21;;;;;;;;;;;23.40;45.40;;;;;;5032141;28;19917;-73
2023/09/02 04:05:48;;;;;;;;;;;24.00;43.80;;;;;;5029717;28;19913;-72
2023/09/02 04:08:27;;;;;;;;;;;24.20;44.80;;;;;;5046334;28;20019;-72
2023/09/02 04:10:55;;;;;;;;;;;24.50;45.30;;;;;;5031239;28;19920;-72
2023/09/02 04:13:25;;;;;;;;;;;24.60;41.20;;;;;;5035444;28;20004;-72
2023/09/02 04:15:58;;;;;;;;;;;24.70;41.10;;;;;;5033552;28;20287;-72
2023/09/02 04:18:25;;;;;;;;;;;24.60;42.10;;;;;;5035798;28;20337;-72
2023/09/02 04:20:54;;;;;;;;;;;24.40;40.50;;;;;;5039018;28;20019;-72
2023/09/02 04:23:21;;;;;;;;;;;23.90;42.20;;;;;;5032390;28;20016;-70
2023/09/02 04:25:49;;;;;;;;;;;24.10;43.30;;;;;;5033319;28;19913;-71
2023/09/02 04:28:16;;;;;;;;;;;24.40;44.00;;;;;;5032679;28;20098;-73
2023/09/02 04:30:43;;;;;;;;;;;24.50;43.30;;;;;;5034156;28;19944;-73
2023/09/02 04:33:10;;;;;;;;;;;24.20;42.20;;;;;;5030380;28;19967;-72
2023/09/02 04:35:37;;;;;;;;;;;23.80;43.60;;;;;;5034030;28;19987;-72
2023/09/02 04:38:05;;;;;;;;;;;23.60;43.50;;;;;;5033002;28;19909;-72
2023/09/02 04:40:41;;;;;;;;;;;23.60;44.40;;;;;;5032481;28;20005;-71
2023/09/02 04:43:08;;;;;;;;;;;23.70;43.60;;;;;;5033190;28;20005;-71
2023/09/02 04:45:39;;;;;;;;;;;23.40;45.10;;;;;;5033116;28;19921;-71
2023/09/02 04:48:07;;;;;;;;;;;23.70;43.70;;;;;;5033275;28;20316;-72
2023/09/02 04:50:34;;;;;;;;;;;23.80;44.50;;;;;;5028964;28;19959;-70
2023/09/02 04:53:02;;;;;;;;;;;23.70;45.20;;;;;;5030537;28;20011;-71
2023/09/02 04:55:31;;;;;;;;;;;23.20;47.60;;;;;;5029519;28;19910;-71
2023/09/02 04:57:58;;;;;;;;;;;23.30;47.90;;;;;;5032096;28;19916;-71
2023/09/02 05:00:26;;;;;;;;;;;23.30;47.70;;;;;;5028779;28;19914;-71
2023/09/02 05:02:53;;;;;;;;;;;23.10;47.90;;;;;;5033080;28;19913;-71
2023/09/02 05:05:21;;;;;;;;;;;22.50;48.90;;;;;;5033901;28;20388;-71
2023/09/02 05:07:48;;;;;;;;;;;22.00;49.20;;;;;;5032307;28;19917;-71
2023/09/02 05:10:15;;;;;;;;;;;21.30;50.40;;;;;;5033572;28;19917;-71
2023/09/02 05:12:42;;;;;;;;;;;21.00;51.40;;;;;;5033008;28;19921;-71
2023/09/02 05:15:09;;;;;;;;;;;20.80;51.70;;;;;;5034189;28;19935;-71
2023/09/02 05:17:35;;;;;;;;;;;21.00;51.50;;;;;;5033048;28;19920;-71
2023/09/02 05:20:03;;;;;;;;;;;21.10;51.50;;;;;;5033536;28;19913;-71
2023/09/02 05:22:30;;;;;;;;;;;21.20;51.90;;;;;;5032527;28;19919;-71
2023/09/02 05:24:57;;;;;;;;;;;21.10;52.00;;;;;;5034757;28;19909;-72
2023/09/02 05:27:24;;;;;;;;;;;21.10;52.80;;;;;;5032941;28;19967;-71
2023/09/02 05:29:50;;;;;;;;;;;21.30;52.70;;;;;;5032003;28;19941;-72
2023/09/02 05:32:17;;;;;;;;;;;21.10;52.50;;;;;;5033667;28;21030;-71
2023/09/02 05:34:44;;;;;;;;;;;21.20;52.50;;;;;;5032485;28;20712;-71
2023/09/02 05:37:11;;;;;;;;;;;20.90;52.60;;;;;;5033248;28;19921;-71
2023/09/02 05:39:37;;;;;;;;;;;21.00;53.50;;;;;;5032491;28;19917;-71
2023/09/02 05:42:04;;;;;;;;;;;20.80;53.80;;;;;;5032780;28;19909;-72
2023/09/02 05:44:32;;;;;;;;;;;20.70;54.40;;;;;;5032491;28;19925;-72
2023/09/02 05:46:59;;;;;;;;;;;20.80;54.50;;;;;;5032463;28;19936;-71
2023/09/02 05:49:25;;;;;;;;;;;20.80;54.50;;;;;;5031834;28;19925;-72
2023/09/02 05:51:52;;;;;;;;;;;20.70;54.30;;;;;;5033778;28;20011;-71
2023/09/02 05:54:19;;;;;;;;;;;20.70;54.60;;;;;;5032305;28;19920;-72
2023/09/02 05:56:48;;;;;;;;;;;20.80;54.90;;;;;;5033049;28;19915;-72
2023/09/02 05:59:15;;;;;;;;;;;20.80;55.50;;;;;;5032713;28;19910;-72
2023/09/02 06:01:43;;;;;;;;;;;20.80;54.30;;;;;;5032520;28;19971;-71
2023/09/02 06:04:09;;;;;;;;;;;20.70;54.50;;;;;;5032386;28;19917;-72
2023/09/02 06:06:36;;;;;;;;;;;20.40;55.00;;;;;;5032663;28;20355;-72
2023/09/02 06:09:03;;;;;;;;;;;20.40;55.90;;;;;;5032658;28;20378;-72
2023/09/02 06:11:30;;;;;;;;;;;20.50;57.00;;;;;;5032484;28;19913;-72
2023/09/02 06:13:57;;;;;;;;;;;20.60;56.90;;;;;;5038113;28;19917;-71
2023/09/02 06:16:27;;;;;;;;;;;20.40;58.10;;;;;;5035730;28;19917;-71
2023/09/02 06:18:54;;;;;;;;;;;20.00;59.20;;;;;;5035929;28;19956;-71
2023/09/02 06:21:20;;;;;;;;;;;19.80;60.10;;;;;;5037619;28;19971;-71
2023/09/02 06:23:47;;;;;;;;;;;19.90;60.30;;;;;;5037611;28;19913;-72
2023/09/02 06:26:14;;;;;;;;;;;19.90;60.10;;;;;;5036403;28;19939;-72
2023/09/02 06:28:40;;;;;;;;;;;19.90;59.80;;;;;;5048799;28;20370;-71
2023/09/02 06:31:08;;;;;;;;;;;19.90;59.90;;;;;;5033414;28;19917;-71
2023/09/02 06:33:35;;;;;;;;;;;19.60;60.50;;;;;;5036259;28;20000;-71
2023/09/02 06:36:09;;;;;;;;;;;19.50;60.90;;;;;;5036200;28;19910;-72
2023/09/02 06:38:35;;;;;;;;;;;19.40;61.10;;;;;;5032614;28;20388;-72
2023/09/02 06:41:08;;;;;;;;;;;19.40;60.80;;;;;;5034666;28;19920;-72
2023/09/02 06:43:35;;;;;;;;;;;19.20;61.00;;;;;;5034855;28;19913;-71
2023/09/02 06:46:28;;;;;;;;;;;19.20;61.30;;;;;;5036321;28;19909;-71
2023/09/02 06:48:54;;;;;;;;;;;19.10;61.30;;;;;;5030562;28;20390;-72
2023/09/02 06:51:21;;;;;;;;;;;19.00;61.50;;;;;;5032629;28;19917;-71
2023/09/02 06:53:47;;;;;;;;;;;19.00;61.90;;;;;;5036909;28;19935;-71
2023/09/02 06:56:14;;;;;;;;;;;18.90;62.10;;;;;;5035848;28;19917;-71
2023/09/02 06:58:41;;;;;;;;;;;19.00;62.00;;;;;;5033256;28;19924;-72
2023/09/02 07:01:18;;;;;;;;;;;18.80;62.50;;;;;;5036861;28;19925;-71
2023/09/02 07:03:45;;;;;;;;;;;18.50;63.60;;;;;;5032596;28;20668;-72
2023/09/02 07:06:15;;;;;;;;;;;18.50;64.80;;;;;;5034592;28;21588;-71
2023/09/02 07:08:42;;;;;;;;;;;18.50;65.00;;;;;;5034956;28;19921;-71
2023/09/02 07:11:12;;;;;;;;;;;18.50;65.30;;;;;;5038443;28;20405;-71
2023/09/02 07:13:39;;;;;;;;;;;18.40;65.50;;;;;;5034854;28;19971;-72
2023/09/02 07:16:07;;;;;;;;;;;18.20;66.00;;;;;;5035222;28;20012;-71
2023/09/02 07:18:33;;;;;;;;;;;18.10;66.30;;;;;;5035462;28;19913;-71
2023/09/02 07:21:04;;;;;;;;;;;18.10;66.30;;;;;;5035102;28;19987;-70
2023/09/02 07:23:32;;;;;;;;;;;17.90;66.80;;;;;;5035909;28;19928;-71
2023/09/02 07:26:04;;;;;;;;;;;17.80;67.40;;;;;;5033741;28;19913;-70
2023/09/02 07:28:31;;;;;;;;;;;17.60;68.20;;;;;;5034267;28;19925;-71
2023/09/02 07:31:01;;;;;;;;;;;17.50;68.40;;;;;;5035115;28;19909;-71
2023/09/02 07:33:28;;;;;;;;;;;17.50;69.40;;;;;;5036825;28;19913;-71
2023/09/02 07:35:57;;;;;;;;;;;17.40;69.50;;;;;;5034423;28;19913;-71
2023/09/02 07:38:24;;;;;;;;;;;17.40;69.90;;;;;;5034937;28;19914;-70
2023/09/02 07:40:51;;;;;;;;;;;17.40;70.00;;;;;;5035328;28;20015;-70
2023/09/02 07:43:17;;;;;;;;;;;17.30;70.80;;;;;;5037196;28;19924;-70
2023/09/02 07:45:44;;;;;;;;;;;17.10;71.60;;;;;;5032360;28;20409;-71
2023/09/02 07:48:11;;;;;;;;;;;17.00;72.50;;;;;;5032152;28;19921;-69
2023/09/02 07:50:37;;;;;;;;;;;17.00;72.70;;;;;;5029499;28;20279;-70
2023/09/02 07:53:04;;;;;;;;;;;16.90;72.80;;;;;;5031352;28;20389;-71
2023/09/02 07:55:31;;;;;;;;;;;16.70;73.60;;;;;;5031797;28;19920;-71
2023/09/02 07:57:59;;;;;;;;;;;16.70;74.50;;;;;;5036530;28;20716;-71
2023/09/02 08:00:26;;;;;;;;;;;16.50;74.90;;;;;;5034035;28;19913;-71
2023/09/02 08:02:53;;;;;;;;;;;16.40;75.80;;;;;;5035131;28;19920;-69
2023/09/02 08:05:19;;;;;;;;;;;16.30;76.50;;;;;;5036648;28;20409;-71
2023/09/02 08:07:46;;;;;;;;;;;16.10;77.70;;;;;;5033617;28;20362;-70
2023/09/02 08:10:13;;;;;;;;;;;16.10;78.10;;;;;;5030088;28;19925;-71
2023/09/02 08:12:39;;;;;;;;;;;16.10;78.60;;;;;;5047723;28;19914;-72
2023/09/02 08:15:06;;;;;;;;;;;16.00;79.10;;;;;;5033202;28;19948;-72
2023/09/02 08:17:37;;;;;;;;;;;16.00;79.60;;;;;;5032175;28;20432;-71
2023/09/02 08:20:04;;;;;;;;;;;16.00;79.90;;;;;;5031442;28;19979;-71
2023/09/02 08:22:31;;;;;;;;;;;15.90;80.30;;;;;;5033297;28;19921;-72
2023/09/02 08:24:57;;;;;;;;;;;15.70;81.10;;;;;;5030305;28;19919;-71
2023/09/02 08:27:27;;;;;;;;;;;15.70;81.40;;;;;;5033649;28;19914;-72
2023/09/02 08:29:54;;;;;;;;;;;15.60;81.90;;;;;;5033421;28;20367;-70
2023/09/02 08:32:20;;;;;;;;;;;15.70;81.90;;;;;;5033246;28;19944;-70
2023/09/02 08:34:47;;;;;;;;;;;15.70;82.40;;;;;;5032959;28;19913;-69
2023/09/02 08:37:14;;;;;;;;;;;15.50;83.20;;;;;;5045256;28;19979;-70
2023/09/02 08:39:40;;;;;;;;;;;15.60;83.40;;;;;;5033370;28;19921;-71
2023/09/02 08:42:08;;;;;;;;;;;15.60;83.20;;;;;;5030197;28;19909;-69
2023/09/02 08:44:38;;;;;;;;;;;15.50;83.70;;;;;;5032489;28;20008;-69
2023/09/02 08:47:05;;;;;;;;;;;15.50;83.70;;;;;;5034264;28;19913;-69
2023/09/02 08:49:33;;;;;;;;;;;15.40;84.40;;;;;;5030527;28;20787;-69
2023/09/02 08:52:00;;;;;;;;;;;15.40;84.40;;;;;;5032599;28;19913;-69
2023/09/02 08:54:28;;;;;;;;;;;15.30;85.30;;;;;;5032209;28;20317;-71
2023/09/02 08:56:56;;;;;;;;;;;15.30;85.40;;;;;;5031725;28;19979;-70
2023/09/02 08:59:24;;;;;;;;;;;15.40;85.80;;;;;;5032190;28;20326;-69
2023/09/02 09:01:50;;;;;;;;;;;15.40;85.90;;;;;;5030975;28;19932;-69
2023/09/02 09:04:18;;;;;;;;;;;15.30;86.50;;;;;;5032660;28;19921;-71
2023/09/02 09:06:45;;;;;;;;;;;15.10;87.30;;;;;;5031124;28;19963;-70
2023/09/02 09:09:12;;;;;;;;;;;15.00;88.20;;;;;;5029916;28;19991;-70
2023/09/02 09:11:41;;;;;;;;;;;15.00;88.70;;;;;;5033296;28;19913;-69
2023/09/02 09:14:21;;;;;;;;;;;15.00;88.70;;;;;;5034134;28;19913;-70
2023/09/02 09:16:49;;;;;;;;;;;15.10;89.80;;;;;;5035239;28;19963;-70
2023/09/02 09:19:17;;;;;;;;;;;15.00;90.20;;;;;;5031186;28;19913;-70
2023/09/02 09:21:48;;;;;;;;;;;14.90;90.50;;;;;;5029492;28;19921;-70
2023/09/02 09:24:15;;;;;;;;;;;14.90;90.70;;;;;;5032178;28;19913;-69
2023/09/02 09:26:43;;;;;;;;;;;14.70;91.10;;;;;;5026933;28;20373;-70
2023/09/02 09:29:14;;;;;;;;;;;14.50;91.60;;;;;;5032176;28;19921;-71
2023/09/02 09:31:41;;;;;;;;;;;14.50;91.90;;;;;;5027835;28;20263;-69
2023/09/02 09:34:08;;;;;;;;;;;14.40;92.20;;;;;;5030922;28;20414;-69
2023/09/02 09:36:34;;;;;;;;;;;14.40;92.40;;;;;;5031352;28;20027;-69
2023/09/02 09:39:05;;;;;;;;;;;14.40;92.30;;;;;;5028851;28;20057;-70
2023/09/02 09:41:32;;;;;;;;;;;14.40;92.30;;;;;;5027829;28;19913;-70
2023/09/02 09:44:15;;;;;;;;;;;14.40;92.40;;;;;;5036905;28;19995;-71
2023/09/02 09:46:41;;;;;;;;;;;14.30;92.50;;;;;;5029475;28;20259;-71
2023/09/02 09:49:08;;;;;;;;;;;14.20;92.60;;;;;;5036058;28;19925;-69
2023/09/02 09:51:35;;;;;;;;;;;14.30;92.70;;;;;;5032070;28;19917;-72
2023/09/02 09:54:02;;;;;;;;;;;14.20;92.90;;;;;;5034913;28;20418;-72
2023/09/02 09:56:29;;;;;;;;;;;14.00;93.10;;;;;;5029636;28;19913;-70
2023/09/02 09:59:06;;;;;;;;;;;14.00;93.20;;;;;;5046222;28;19921;-72
2023/09/02 10:01:32;;;;;;;;;;;13.90;93.50;;;;;;5034540;28;19953;-72
2023/09/02 10:04:06;;;;;;;;;;;13.90;93.60;;;;;;5034374;28;19920;-71
2023/09/02 10:06:36;;;;;;;;;;;13.90;93.90;;;;;;5032396;28;19913;-70
2023/09/02 10:09:03;;;;;;;;;;;13.80;94.20;;;;;;5031453;28;19925;-71
2023/09/02 10:11:30;;;;;;;;;;;13.80;94.40;;;;;;5035082;28;20039;-72
2023/09/02 10:13:57;;;;;;;;;;;13.80;94.60;;;;;;5035033;28;19917;-70
2023/09/02 10:16:25;;;;;;;;;;;13.90;94.70;;;;;;5035822;28;19944;-72
2023/09/02 10:18:52;;;;;;;;;;;13.90;94.70;;;;;;5033456;28;19912;-72
2023/09/02 10:21:19;;;;;;;;;;;14.00;94.70;;;;;;5032687;28;19917;-71
2023/09/02 10:23:52;;;;;;;;;;;14.10;94.70;;;;;;5033824;28;19921;-71
2023/09/02 10:26:22;;;;;;;;;;;14.10;94.50;;;;;;5033659;28;19917;-72
2023/09/02 10:28:49;;;;;;;;;;;14.20;94.50;;;;;;5032208;28;19925;-71
2023/09/02 10:31:22;;;;;;;;;;;14.30;94.50;;;;;;5031341;28;19945;-71
2023/09/02 10:33:49;;;;;;;;;;;14.30;94.40;;;;;;5033688;28;19913;-70
2023/09/02 10:36:18;;;;;;;;;;;14.20;94.40;;;;;;5033721;28;20285;-70
2023/09/02 10:38:48;;;;;;;;;;;14.30;94.40;;;;;;5035069;28;19921;-70
2023/09/02 10:41:16;;;;;;;;;;;14.30;94.40;;;;;;5032246;28;19913;-71
2023/09/02 10:43:43;;;;;;;;;;;14.20;94.40;;;;;;5035247;28;19967;-71
2023/09/02 10:46:11;;;;;;;;;;;14.30;94.40;;;;;;5035199;28;19917;-71
2023/09/02 10:48:38;;;;;;;;;;;14.30;94.30;;;;;;5048734;28;20429;-70
2023/09/02 10:51:06;;;;;;;;;;;14.30;94.20;;;;;;5032336;28;20341;-71
2023/09/02 10:53:48;;;;;;;;;;;14.30;94.10;;;;;;5033520;28;19924;-70
2023/09/02 10:56:31;;;;;;;;;;;14.30;94.10;;;;;;5028990;28;20370;-69
2023/09/02 10:58:58;;;;;;;;;;;14.30;94.20;;;;;;5031857;28;20012;-71
2023/09/02 11:01:25;;;;;;;;;;;14.40;94.20;;;;;;5034152;28;19920;-70
2023/09/02 11:03:57;;;;;;;;;;;14.50;94.00;;;;;;5031513;28;19959;-70
2023/09/02 11:06:24;;;;;;;;;;;14.50;94.20;;;;;;5032325;28;19917;-70
2023/09/02 11:08:52;;;;;;;;;;;14.50;94.20;;;;;;5031843;28;19925;-69
2023/09/02 11:11:19;;;;;;;;;;;14.50;94.10;;;;;;5033559;28;19921;-71
2023/09/02 11:14:04;;;;;;;;;;;14.60;94.10;;;;;;5034668;28;19928;-71
2023/09/02 11:16:30;;;;;;;;;;;14.60;94.10;;;;;;5031072;28;19913;-71
2023/09/02 11:18:58;;;;;;;;;;;14.60;94.20;;;;;;5030834;28;20008;-70
2023/09/02 11:21:42;;;;;;;;;;;14.60;94.20;;;;;;5029839;28;19952;-72
2023/09/02 11:24:15;;;;;;;;;;;14.60;94.30;;;;;;5033649;28;19913;-70
2023/09/02 11:26:51;;;;;;;;;;;14.60;94.20;;;;;;5030603;28;19961;-71
2023/09/02 11:29:25;;;;;;;;;;;14.60;94.30;;;;;;5031668;28;20442;-72
2023/09/02 11:32:04;;;;;;;;;;;14.60;94.10;;;;;;5031177;28;19924;-70
2023/09/02 11:34:31;;;;;;;;;;;14.70;94.30;;;;;;5030356;28;19917;-70
2023/09/02 11:36:58;;;;;;;;;;;14.70;94.10;;;;;;5031474;28;20255;-71
2023/09/02 11:39:29;;;;;;;;;;;14.70;93.90;;;;;;5044894;28;20339;-70
2023/09/02 11:42:08;;;;;;;;;;;14.60;93.60;;;;;;5032088;28;19940;-70
2023/09/02 11:44:35;;;;;;;;;;;14.60;93.80;;;;;;5033040;28;19921;-70
2023/09/02 11:47:02;;;;;;;;;;;14.60;93.70;;;;;;5030119;28;19924;-71
2023/09/02 11:49:29;;;;;;;;;;;14.60;93.70;;;;;;5031314;28;19925;-70
2023/09/02 11:51:56;;;;;;;;;;;14.50;93.90;;;;;;5030701;28;19928;-69
2023/09/02 11:54:23;;;;;;;;;;;14.50;93.80;;;;;;5032080;28;19913;-69
2023/09/02 11:57:00;;;;;;;;;;;14.50;93.80;;;;;;5034760;28;20009;-69
2023/09/02 11:59:27;;;;;;;;;;;14.50;94.00;;;;;;5030907;28;19971;-71
2023/09/02 12:02:08;;;;;;;;;;;14.50;94.20;;;;;;5030877;28;19913;-70
2023/09/02 12:04:36;;;;;;;;;;;14.50;94.00;;;;;;5031386;28;20015;-70
2023/09/02 12:07:03;;;;;;;;;;;14.50;93.90;;;;;;5032021;28;20357;-71
2023/09/02 12:09:30;;;;;;;;;;;14.50;93.90;;;;;;5030822;28;19921;-69
2023/09/02 12:11:57;;;;;;;;;;;14.40;93.90;;;;;;5029714;28;19963;-70
2023/09/02 12:14:24;;;;;;;;;;;14.40;94.00;;;;;;5029777;28;19913;-70
2023/09/02 12:16:51;;;;;;;;;;;14.40;93.90;;;;;;5032515;28;19917;-70
2023/09/02 12:19:18;;;;;;;;;;;14.40;94.10;;;;;;5029778;28;19924;-69
2023/09/02 12:21:45;;;;;;;;;;;14.40;94.10;;;;;;5030074;28;19913;-70
2023/09/02 12:24:11;;;;;;;;;;;14.30;94.10;;;;;;5033545;28;19921;-69
2023/09/02 12:26:47;;;;;;;;;;;14.30;93.90;;;;;;5030840;28;19921;-70
2023/09/02 12:29:15;;;;;;;;;;;14.30;94.00;;;;;;5032736;28;20313;-71
2023/09/02 12:31:45;;;;;;;;;;;14.30;94.00;;;;;;5029973;28;19928;-70
2023/09/02 12:34:12;;;;;;;;;;;14.30;94.20;;;;;;5031328;28;20007;-70
2023/09/02 12:36:38;;;;;;;;;;;14.20;94.00;;;;;;5033979;28;19932;-70
2023/09/02 12:39:05;;;;;;;;;;;14.30;93.80;;;;;;5034534;28;19913;-70
2023/09/02 12:41:39;;;;;;;;;;;14.30;93.80;;;;;;5031408;28;20280;-70
2023/09/02 12:44:15;;;;;;;;;;;14.30;93.90;;;;;;5031716;28;20385;-69
2023/09/02 12:46:42;;;;;;;;;;;14.20;93.90;;;;;;5029645;28;20008;-72
2023/09/02 12:49:11;;;;;;;;;;;14.20;94.00;;;;;;5032690;28;19921;-71
2023/09/02 12:51:38;;;;;;;;;;;14.20;94.00;;;;;;5033495;28;19912;-71
2023/09/02 12:54:11;;;;;;;;;;;14.30;94.00;;;;;;5033642;28;19926;-71
2023/09/02 12:56:38;;;;;;;;;;;14.20;93.90;;;;;;5029519;28;20122;-71
2023/09/02 12:59:05;;;;;;;;;;;14.20;94.00;;;;;;5033911;28;19916;-70
2023/09/02 13:01:33;;;;;;;;;;;14.20;93.90;;;;;;5029644;28;20460;-72
2023/09/02 13:04:00;;;;;;;;;;;14.20;94.00;;;;;;5028085;28;20011;-71
2023/09/02 13:06:27;;;;;;;;;;;14.20;94.10;;;;;;5030853;28;19948;-71
2023/09/02 13:08:57;;;;;;;;;;;14.20;94.10;;;;;;5027854;28;19967;-70
2023/09/02 13:11:27;;;;;;;;;;;14.20;93.90;;;;;;5030651;28;19917;-70
2023/09/02 13:13:54;;;;;;;;;;;14.20;94.10;;;;;;5024600;28;20380;-70
2023/09/02 13:16:20;;;;;;;;;;;14.10;94.10;;;;;;5029860;28;19952;-70
2023/09/02 13:18:47;;;;;;;;;;;14.10;94.20;;;;;;5026659;28;19913;-70
2023/09/02 13:21:14;;;;;;;;;;;14.20;94.00;;;;;;5029105;28;20285;-70
2023/09/02 13:23:41;;;;;;;;;;;14.10;94.10;;;;;;5036344;28;20281;-71
2023/09/02 13:26:16;;;;;;;;;;;14.10;94.20;;;;;;5034237;28;19917;-71
2023/09/02 13:28:42;;;;;;;;;;;14.10;94.30;;;;;;5033077;28;19928;-72
2023/09/02 13:31:11;;;;;;;;;;;14.10;94.30;;;;;;5034261;28;20005;-71
2023/09/02 13:33:41;;;;;;;;;;;14.20;94.20;;;;;;5032370;28;19913;-70
2023/09/02 13:36:07;;;;;;;;;;;14.10;94.10;;;;;;5032940;28;19917;-71
2023/09/02 13:38:38;;;;;;;;;;;14.20;94.10;;;;;;5033657;28;20003;-71
2023/09/02 13:41:05;;;;;;;;;;;14.10;94.00;;;;;;5032697;28;20290;-70
2023/09/02 13:43:32;;;;;;;;;;;14.10;94.20;;;;;;5029861;28;20386;-71
2023/09/02 13:45:59;;;;;;;;;;;14.10;94.20;;;;;;5033650;28;19917;-71
2023/09/02 13:48:26;;;;;;;;;;;14.10;94.20;;;;;;5033352;28;19959;-71
2023/09/02 13:50:52;;;;;;;;;;;14.10;94.20;;;;;;5032172;28;20024;-70
2023/09/02 13:53:19;;;;;;;;;;;14.30;94.00;;;;;;5033954;28;19913;-70
2023/09/02 13:55:46;;;;;;;;;;;14.20;93.90;;;;;;5033930;28;19913;-72
2023/09/02 13:58:22;;;;;;;;;;;14.30;93.80;;;;;;5030563;28;19990;-69
2023/09/02 14:00:51;;;;;;;;;;;14.20;93.90;;;;;;5031398;28;20452;-68
2023/09/02 14:03:20;;;;;;;;;;;14.20;94.10;;;;;;5032098;28;19917;-71
2023/09/02 14:05:47;;;;;;;;;;;14.10;94.10;;;;;;5033213;28;20004;-71
2023/09/02 14:08:17;;;;;;;;;;;14.00;94.30;;;;;;5032346;28;20356;-71
2023/09/02 14:10:45;;;;;;;;;;;14.00;94.20;;;;;;5032965;28;19936;-70
2023/09/02 14:13:13;;;;;;;;;;;14.00;94.30;;;;;;5033881;28;20007;-70
2023/09/02 14:15:39;;;;;;;;;;;14.10;94.30;;;;;;5034973;28;19979;-70
2023/09/02 14:18:06;;;;;;;;;;;14.00;94.40;;;;;;5032753;28;19913;-70
2023/09/02 14:20:34;;;;;;;;;;;14.10;94.40;;;;;;5031921;28;19913;-70
2023/09/02 14:23:01;;;;;;;;;;;14.10;94.10;;;;;;5030928;28;19925;-70